createdAt,value
2019-04-07T00:03:17.288Z,7.5
2019-04-07T00:08:19.151Z,7.3
2019-04-07T00:13:21.655Z,7.2
2019-04-07T00:18:24.175Z,7
2019-04-07T00:23:26.698Z,6.8
2019-04-07T00:28:28.980Z,6.6
2019-04-07T00:33:32.160Z,6.5
2019-04-07T00:38:33.888Z,6.4
2019-04-07T00:43:36.401Z,6.3
2019-04-07T00:48:38.912Z,6.2
2019-04-07T00:53:41.735Z,6.2
2019-04-07T00:58:43.760Z,6.1
2019-04-07T01:03:46.268Z,6.1
2019-04-07T01:08:49.061Z,6.1
2019-04-07T01:13:51.636Z,6
2019-04-07T01:18:53.657Z,6
2019-04-07T01:23:56.260Z,6
2019-04-07T01:28:59.190Z,5.9
2019-04-07T01:34:00.928Z,5.9
2019-04-07T01:39:04.016Z,5.9
2019-04-07T01:44:05.844Z,5.8
2019-04-07T01:49:09.978Z,5.7
2019-04-07T01:54:10.772Z,5.6
2019-04-07T01:59:13.234Z,5.4
2019-04-07T02:04:15.774Z,5.3
2019-04-07T02:09:18.357Z,5.2
2019-04-07T02:14:21.275Z,5.2
2019-04-07T02:19:23.064Z,5.1
2019-04-07T02:24:25.568Z,5
2019-04-07T02:29:28.141Z,4.9
2019-04-07T02:34:30.535Z,4.8
2019-04-07T02:39:32.925Z,4.8
2019-04-07T02:44:35.451Z,4.7
2019-04-07T02:49:37.985Z,4.6
2019-04-07T02:54:40.284Z,4.6
2019-04-07T02:59:43.131Z,4.5
2019-04-07T03:04:45.993Z,4.5
2019-04-07T03:09:47.689Z,4.4
2019-04-07T03:19:52.726Z,4.1
2019-04-07T03:24:55.073Z,4
2019-04-07T03:29:58.733Z,3.8
2019-04-07T03:35:00.098Z,3.8
2019-04-07T03:40:02.724Z,3.8
2019-04-07T03:45:04.966Z,3.7
2019-04-07T03:50:07.773Z,3.7
2019-04-07T03:55:09.955Z,3.7
2019-04-07T04:00:12.558Z,3.7
2019-04-07T04:05:14.832Z,3.7
2019-04-07T04:10:17.456Z,3.6
2019-04-07T04:15:20.137Z,3.6
2019-04-07T04:20:22.533Z,3.6
2019-04-07T04:25:24.677Z,3.6
2019-04-07T04:30:27.711Z,3.7
2019-04-07T04:35:30.014Z,3.8
2019-04-07T04:40:32.362Z,3.8
2019-04-07T04:45:34.673Z,3.9
2019-04-07T04:50:37.461Z,3.9
2019-04-07T04:55:40.332Z,3.9
2019-04-07T05:00:42.805Z,4
2019-04-07T05:05:44.476Z,4
2019-04-07T05:10:47.291Z,4.1
2019-04-07T05:15:50.098Z,4.2
2019-04-07T05:20:51.792Z,4.4
2019-04-07T05:25:54.489Z,4.4
2019-04-07T05:30:56.919Z,4.6
2019-04-07T05:35:59.336Z,4.7
2019-04-07T05:41:01.848Z,4.8
2019-04-07T05:46:06.870Z,5
2019-04-07T05:51:07.224Z,5.2
2019-04-07T05:56:09.050Z,5.4
2019-04-07T06:01:11.756Z,5.6
2019-04-07T06:06:14.769Z,5.9
2019-04-07T06:11:16.942Z,6.1
2019-04-07T06:16:20.411Z,6.5
2019-04-07T06:21:21.355Z,6.8
2019-04-07T06:26:23.768Z,7.3
2019-04-07T06:31:27.087Z,8.1
2019-04-07T06:36:28.807Z,10.9
2019-04-07T06:41:32.302Z,13.9
2019-04-07T06:46:33.597Z,16.5
2019-04-07T06:51:37.192Z,19
2019-04-07T06:56:38.643Z,21.1
2019-04-07T07:01:41.075Z,23.2
2019-04-07T07:06:46.015Z,25.3
2019-04-07T07:11:46.118Z,26.6
2019-04-07T07:16:49.033Z,27.6
2019-04-07T07:21:51.119Z,28.6
2019-04-07T07:26:53.880Z,30.1
2019-04-07T07:32:00.063Z,31.3
2019-04-07T07:36:58.941Z,32
2019-04-07T07:42:05.643Z,32.6
2019-04-07T07:47:03.098Z,33.2
2019-04-07T07:57:08.044Z,33.8
2019-04-07T08:02:11.012Z,33
2019-04-07T08:07:15.204Z,32.3
2019-04-07T08:12:16.232Z,32.3
2019-04-07T08:17:18.359Z,32.2
2019-04-07T08:27:22.877Z,32.8
2019-04-07T08:32:27.575Z,33.8
2019-04-07T08:37:27.741Z,33.7
2019-04-07T08:42:30.313Z,32.7
2019-04-07T08:47:33.361Z,31.5
2019-04-07T08:52:38.401Z,30.3
2019-04-07T08:57:37.539Z,30.4
2019-04-07T09:02:40.142Z,30.1
2019-04-07T09:12:45.113Z,30.9
2019-04-07T09:17:47.783Z,31
2019-04-07T09:22:53.047Z,31.2
2019-04-07T09:27:52.364Z,31.6
2019-04-07T09:32:54.757Z,32.6
2019-04-07T09:37:57.649Z,31.5
2019-04-07T09:43:01.034Z,28.9
2019-04-07T09:48:02.216Z,26.9
2019-04-07T09:53:04.733Z,26.4
2019-04-07T09:58:08.774Z,27.5
2019-04-07T10:03:12.879Z,26.8
2019-04-07T10:08:13.754Z,26.2
2019-04-07T10:13:14.596Z,25.6
2019-04-07T10:18:16.894Z,26.3
2019-04-07T10:23:19.762Z,26.6
2019-04-07T10:28:22.365Z,27
2019-04-07T10:33:24.259Z,27.5
2019-04-07T10:43:30.271Z,28.4
2019-04-07T10:48:31.755Z,27.2
2019-04-07T10:53:35.133Z,26.7
2019-04-07T10:58:36.822Z,26.8
2019-04-07T11:03:39.429Z,25.4
2019-04-07T11:08:42.219Z,23.8
2019-04-07T11:13:43.983Z,22.5
2019-04-07T11:18:46.392Z,21.6
2019-04-07T11:23:49.079Z,22.1
2019-04-07T11:28:52.383Z,22.6
2019-04-07T11:38:56.266Z,21.6
2019-04-07T11:43:59.296Z,22.7
2019-04-07T11:49:01.141Z,25.1
2019-04-07T11:54:03.621Z,25.3
2019-04-07T11:59:07.644Z,24.6
2019-04-07T12:04:08.552Z,24.2
2019-04-07T12:09:11.763Z,23.5
2019-04-07T12:14:16.137Z,23.9
2019-04-07T12:19:16.284Z,24.2
2019-04-07T12:24:18.905Z,24.9
2019-04-07T12:29:21.159Z,25.8
2019-04-07T12:34:23.459Z,25.9
2019-04-07T12:39:25.743Z,25.6
2019-04-07T12:44:28.915Z,25.2
2019-04-07T12:49:33.084Z,23.8
2019-04-07T12:54:33.158Z,23
2019-04-07T12:59:35.810Z,22
2019-04-07T13:04:38.063Z,21.2
2019-04-07T13:09:40.677Z,20.4
2019-04-07T13:14:43.908Z,19.5
2019-04-07T13:19:48.873Z,18.6
2019-04-07T13:24:48.586Z,18.3
2019-04-07T13:29:50.789Z,18.5
2019-04-07T13:34:52.795Z,18.7
2019-04-07T13:39:55.574Z,19.2
2019-04-07T13:44:58.244Z,20
2019-04-07T13:50:02.328Z,20.2
2019-04-07T13:55:05.050Z,19.6
2019-04-07T14:00:05.316Z,19.4
2019-04-07T14:05:09.877Z,19.2
2019-04-07T14:10:10.267Z,19.1
2019-04-07T14:15:12.554Z,19.4
2019-04-07T14:20:15.077Z,19.4
2019-04-07T14:25:18.020Z,19.4
2019-04-07T14:30:20.222Z,19.3
2019-04-07T14:35:22.612Z,18.9
2019-04-07T14:40:26.094Z,18.7
2019-04-07T14:45:27.300Z,18.9
2019-04-07T14:50:29.727Z,18.9
2019-04-07T14:55:32.522Z,18.8
2019-04-07T15:00:35.019Z,18.8
2019-04-07T15:05:37.096Z,18.6
2019-04-07T15:10:39.753Z,18.2
2019-04-07T15:15:41.961Z,17.8
2019-04-07T15:20:45.135Z,17.8
2019-04-07T15:25:47.282Z,17.9
2019-04-07T15:30:50.413Z,18
2019-04-07T15:35:52.369Z,17.9
2019-04-07T15:40:54.322Z,17.8
2019-04-07T15:45:56.910Z,17.7
2019-04-07T15:51:02.261Z,17.8
2019-04-07T15:56:05.815Z,17.9
2019-04-07T16:01:06.469Z,17.8
2019-04-07T16:06:06.613Z,17.7
2019-04-07T16:11:09.189Z,17.5
2019-04-07T16:16:11.475Z,17.3
2019-04-07T16:21:14.271Z,16.9
2019-04-07T16:26:16.406Z,16.7
2019-04-07T16:31:19.725Z,16.5
2019-04-07T16:36:24.465Z,16.5
2019-04-07T16:41:23.785Z,16.5
2019-04-07T16:46:26.256Z,16.5
2019-04-07T16:51:30.062Z,16.4
2019-04-07T16:56:32.234Z,16.4
2019-04-07T17:01:34.649Z,16.3
2019-04-07T17:06:36.392Z,16.2
2019-04-07T17:11:40.556Z,15.9
2019-04-07T17:16:44.106Z,15.7
2019-04-07T17:21:43.408Z,15.6
2019-04-07T17:26:45.924Z,15.5
2019-04-07T17:31:48.693Z,15.5
2019-04-07T17:36:55.275Z,15.5
2019-04-07T17:41:53.996Z,15.4
2019-04-07T17:46:57.808Z,15.4
2019-04-07T17:51:58.590Z,15.3
2019-04-07T17:57:03.045Z,15.2
2019-04-07T18:02:04.232Z,15.1
2019-04-07T18:07:06.207Z,15
2019-04-07T18:12:12.703Z,14.9
2019-04-07T18:17:10.432Z,14.8
2019-04-07T18:22:13.653Z,14.7
2019-04-07T18:27:16.953Z,14.6
2019-04-07T18:32:18.626Z,14.3
2019-04-07T18:42:22.824Z,13.9
2019-04-07T18:47:25.949Z,13.6
2019-04-07T18:52:28.094Z,13.5
2019-04-07T18:57:30.549Z,13.4
2019-04-07T19:02:33.263Z,13.3
2019-04-07T19:07:35.818Z,13.2
2019-04-07T19:12:37.469Z,13
2019-04-07T19:17:40.528Z,12.8
2019-04-07T19:22:43.276Z,12.7
2019-04-07T19:27:44.879Z,12.6
2019-04-07T19:32:48.473Z,12.4
2019-04-07T19:42:52.427Z,11.8
2019-04-07T19:47:54.862Z,11.6
2019-04-07T19:52:57.128Z,11.4
2019-04-07T19:58:00.860Z,11.2
2019-04-07T20:03:06.097Z,11.1
2019-04-07T20:08:05.590Z,10.9
2019-04-07T20:13:07.500Z,10.7
2019-04-07T20:18:10.423Z,10.6
2019-04-07T20:23:11.989Z,10.5
2019-04-07T20:28:15.260Z,10.4
2019-04-07T20:33:16.782Z,10.4
2019-04-07T20:38:19.323Z,10.4
2019-04-07T20:43:23.461Z,10.3
2019-04-07T20:48:24.195Z,10.4
2019-04-07T20:53:29.665Z,10.4
2019-04-07T20:58:42.044Z,10.3
2019-04-07T21:03:31.917Z,10.2
2019-04-07T21:08:34.493Z,10.1
2019-04-07T21:13:37.423Z,10
2019-04-07T21:18:39.170Z,9.8
2019-04-07T21:23:41.411Z,9.6
2019-04-07T21:28:43.872Z,9.5
2019-04-07T21:33:46.379Z,9.3
2019-04-07T21:38:52.479Z,9.2
2019-04-07T21:43:51.298Z,9.2
2019-04-07T21:48:53.644Z,9.1
2019-04-07T21:53:59.894Z,9
2019-04-07T21:58:59.178Z,9
2019-04-07T22:04:01.025Z,8.8
2019-04-07T22:09:03.482Z,8.7
2019-04-07T22:14:07.655Z,8.5
2019-04-07T22:19:10.557Z,8.4
2019-04-07T22:24:11.171Z,8.2
2019-04-07T22:29:13.317Z,8.1
2019-04-07T22:34:16.480Z,8
2019-04-07T22:39:18.496Z,7.8
2019-04-07T22:44:22.173Z,7.6
2019-04-07T22:49:23.380Z,7.5
2019-04-07T22:54:29.392Z,7.3
2019-04-07T22:59:28.108Z,7.1
2019-04-07T23:04:30.512Z,7
2019-04-07T23:09:33.475Z,6.9
2019-04-07T23:14:35.959Z,6.8
2019-04-07T23:19:37.961Z,6.7
2019-04-07T23:24:41.099Z,6.6
2019-04-07T23:29:42.841Z,6.5
2019-04-07T23:34:45.710Z,6.4
2019-04-07T23:39:47.705Z,6.4
2019-04-07T23:44:50.206Z,6.3
2019-04-07T23:49:52.769Z,6.3
2019-04-07T23:54:55.100Z,6.1
2019-04-07T23:59:58.221Z,6.1
